This is the latest recevied weather packets stored in our database for station/object DG0LHZ-10. If no packets are shown the sender has not sent any weather packets the latest 1 day(s).
| Time | Temp. | Humidity | Pressure | Rain* | Wind** | Luminosity | Snow |
|---|---|---|---|---|---|---|---|
| 1778100584 | 18.33° C | 46% | 1008.7 hPa | - | - | - | - |
| 1778099684 | 18.33° C | 46% | 1008.8 hPa | - | - | - | - |
| 1778098784 | 18.89° C | 45% | 1009.1 hPa | - | - | - | - |
| 1778097884 | 19.44° C | 46% | 1008.7 hPa | - | - | - | - |
| 1778096984 | 19.44° C | 45% | 1008.8 hPa | - | - | - | - |
| 1778087083 | 25.56° C | 42% | 1007 hPa | - | - | - | - |
| 1778086183 | 25.56° C | 42% | 1006.8 hPa | - | - | - | - |
| 1778085283 | 26.11° C | 42% | 1006.8 hPa | - | - | - | - |
| 1778084383 | 26.67° C | 42% | 1006.9 hPa | - | - | - | - |
| 1778083483 | 26.67° C | 42% | 1006.8 hPa | - | - | - | - |
| 1778082583 | 26.11° C | 43% | 1006.9 hPa | - | - | - | - |
| 1778076282 | 26.11° C | 44% | 1007.1 hPa | - | - | - | - |
| 1778075382 | 26.67° C | 44% | 1007 hPa | - | - | - | - |
| 1778074482 | 26.67° C | 44% | 1007.1 hPa | - | - | - | - |
| 1778073582 | 26.11° C | 45% | 1007.1 hPa | - | - | - | - |
| 1778072682 | 25.56° C | 46% | 1007.2 hPa | - | - | - | - |
| 1778071782 | 25° C | 47% | 1007.3 hPa | - | - | - | - |
| 1778070882 | 25° C | 48% | 1007.3 hPa | - | - | - | - |
| 1778069982 | 24.44° C | 49% | 1007.3 hPa | - | - | - | - |
| 1778063681 | 22.22° C | 53% | 1007.7 hPa | - | - | - | - |
| 1778061881 | 20° C | 56% | 1007.5 hPa | - | - | - | - |
| 1778060981 | 20° C | 55% | 1007.5 hPa | - | - | - | - |
| 1778060081 | 19.44° C | 55% | 1007.3 hPa | - | - | - | - |
| 1778059181 | 18.89° C | 55% | 1007.2 hPa | - | - | - | - |
| 1778058281 | 18.33° C | 56% | 1007.1 hPa | - | - | - | - |
* Rain since midnight (hover to see other rain measurements)
** Current wind speed in m/s (hover to see current wind gust speed)